ADDS METAR Data INFO
IDs: Format: Raw Decoded Include TAF

Data at: 0142 UTC 19 Oct 2017

METAR for:KAUS (Austin/Bergstrom Int, TX, US)
Text:KAUS 190053Z 00000KT 10SM FEW200 BKN250 16/12 A3009 RMK AO2 SLP189 T01610122
Temperature: 16.1°C ( 61°F)
Dewpoint: 12.2°C ( 54°F) [RH = 78%]
Pressure (altimeter):30.09 inches Hg (1019.0 mb) [Sea level pressure: 1018.9 mb]
Winds:calm
Visibility:10 or more sm (16+ km)
Ceiling:25000 feet AGL
Clouds: few clouds at 20000 feet AGL, broken clouds at 25000 feet AGL